createdAt,value
2019-01-11T00:07:26.859Z,93.17
2019-01-11T00:18:15.843Z,92.84
2019-01-11T00:23:34.305Z,92.76
2019-01-11T00:28:52.847Z,92.93
2019-01-11T00:34:11.378Z,93.00
2019-01-11T00:39:29.846Z,93.21
2019-01-11T00:55:48.347Z,93.38
2019-01-11T01:01:26.230Z,93.41
2019-01-11T01:06:44.840Z,93.45
2019-01-11T01:17:35.603Z,93.66
2019-01-11T01:28:24.648Z,94.12
2019-01-11T01:33:43.187Z,94.58
2019-01-11T01:39:01.655Z,94.72
2019-01-11T01:44:20.254Z,95.01
2019-01-11T01:49:38.720Z,95.18
2019-01-11T01:54:57.379Z,95.05
2019-01-11T02:00:55.704Z,94.95
2019-01-11T02:06:14.267Z,94.92
2019-01-11T02:11:32.732Z,94.81
2019-01-11T02:16:51.633Z,95.26
2019-01-11T02:22:10.180Z,95.24
2019-01-11T02:27:28.710Z,95.35
2019-01-11T02:32:52.549Z,95.23
2019-01-11T02:43:40.614Z,95.63
2019-01-11T02:48:59.093Z,95.99
2019-01-11T02:54:17.557Z,95.89
2019-01-11T02:59:36.021Z,96.11
2019-01-11T03:04:54.564Z,96.21
2019-01-11T03:10:53.199Z,95.83
2019-01-11T03:16:11.816Z,95.82
2019-01-11T03:21:30.354Z,96.16
2019-01-11T03:26:48.820Z,96.08
2019-01-11T03:32:20.015Z,95.97
2019-01-11T03:37:38.547Z,95.90
2019-01-11T03:43:36.950Z,96.07
2019-01-11T03:54:24.507Z,96.31
2019-01-11T03:59:42.973Z,96.31
2019-01-11T04:05:01.595Z,96.39
2019-01-11T04:11:00.017Z,96.35
2019-01-11T04:16:18.519Z,96.23
2019-01-11T04:21:37.063Z,96.74
2019-01-11T04:26:55.533Z,96.82
2019-01-11T04:32:14.390Z,96.88
2019-01-11T04:37:32.873Z,96.73
2019-01-11T04:42:51.342Z,96.70
2019-01-11T04:48:09.870Z,96.65
2019-01-11T04:53:28.340Z,96.58
2019-01-11T04:58:46.818Z,96.81
2019-01-11T05:04:05.355Z,96.79
2019-01-11T05:09:23.892Z,96.62
2019-01-11T05:14:42.431Z,96.59
2019-01-11T05:20:00.972Z,96.74
2019-01-11T05:25:19.812Z,96.91
2019-01-11T05:30:38.349Z,96.99
2019-01-11T05:35:56.888Z,97.33
2019-01-11T05:41:15.432Z,97.63
2019-01-11T05:46:33.976Z,97.74
2019-01-11T05:51:52.513Z,97.73
2019-01-11T05:57:11.279Z,97.81
2019-01-11T06:02:29.753Z,97.93
2019-01-11T06:13:17.314Z,97.58
2019-01-11T06:18:35.852Z,97.85
2019-01-11T06:23:54.387Z,97.81
2019-01-11T06:29:12.854Z,97.99
2019-01-11T06:34:31.622Z,97.90
2019-01-11T06:45:39.880Z,98.11
2019-01-11T06:50:58.353Z,98.18
2019-01-11T06:56:16.880Z,98.30
2019-01-11T07:01:35.359Z,98.10
2019-01-11T07:06:53.829Z,98.18
2019-01-11T07:12:12.535Z,98.29
2019-01-11T07:17:31.014Z,98.46
2019-01-11T07:22:49.654Z,98.39
2019-01-11T07:28:13.624Z,98.33
2019-01-11T07:33:28.332Z,98.41
2019-01-11T07:38:46.800Z,98.38
2019-01-11T07:44:05.405Z,98.49
2019-01-11T07:49:23.882Z,98.63
2019-01-11T07:54:42.358Z,98.59
2019-01-11T08:00:00.985Z,98.54
2019-01-11T08:05:19.450Z,98.63
2019-01-11T08:10:57.270Z,98.63
2019-01-11T08:16:15.802Z,98.58
2019-01-11T08:21:34.410Z,98.57
2019-01-11T08:37:57.127Z,98.22
2019-01-11T08:43:15.668Z,98.15
2019-01-11T08:54:04.896Z,98.16
2019-01-11T09:04:53.811Z,98.07
2019-01-11T09:10:52.190Z,98.01
2019-01-11T09:16:10.820Z,97.94
2019-01-11T09:21:29.362Z,98.06
2019-01-11T09:26:47.846Z,98.42
2019-01-11T09:37:38.892Z,98.65
2019-01-11T09:42:57.367Z,98.90
2019-01-11T09:48:35.317Z,99.09
2019-01-11T09:53:53.785Z,99.28
2019-01-11T09:59:12.250Z,99.44
2019-01-11T10:09:59.892Z,99.65
2019-01-11T10:15:18.507Z,99.87
2019-01-11T10:20:36.996Z,99.99
2019-01-11T10:25:55.612Z,100.00
2019-01-11T10:31:14.171Z,100.00
2019-01-11T10:36:32.733Z,100.00
2019-01-11T10:41:51.285Z,100.00
2019-01-11T10:47:09.891Z,99.97
2019-01-11T10:52:28.523Z,99.63
2019-01-11T10:58:07.781Z,99.46
2019-01-11T11:03:26.267Z,99.52
2019-01-11T11:08:44.887Z,99.36
2019-01-11T11:14:03.458Z,99.55
2019-01-11T11:19:22.003Z,99.68
2019-01-11T11:24:40.478Z,99.72
2019-01-11T11:29:58.962Z,99.82
2019-01-11T11:35:17.775Z,100.00
2019-01-11T11:40:36.392Z,100.00
2019-01-11T11:45:55.005Z,100.00
2019-01-11T11:51:13.659Z,100.00
2019-01-11T11:56:32.205Z,100.00
2019-01-11T12:01:52.453Z,100.00
2019-01-11T12:12:41.633Z,100.00
2019-01-11T12:18:00.127Z,100.00
2019-01-11T12:23:18.694Z,100.00
2019-01-11T12:28:37.276Z,100.00
2019-01-11T12:33:55.766Z,100.00
2019-01-11T12:39:14.252Z,100.00
2019-01-11T12:44:32.743Z,100.00
2019-01-11T12:49:51.259Z,100.00
2019-01-11T12:55:10.008Z,100.00
2019-01-11T13:00:28.520Z,100.00
2019-01-11T13:05:47.065Z,100.00
2019-01-11T13:11:05.667Z,100.00
2019-01-11T13:16:24.210Z,100.00
2019-01-11T13:21:42.849Z,100.00
2019-01-11T13:27:01.377Z,100.00
2019-01-11T13:32:19.990Z,100.00
2019-01-11T13:37:38.549Z,100.00
2019-01-11T13:42:57.160Z,100.00
2019-01-11T13:48:15.622Z,100.00
2019-01-11T13:53:34.100Z,100.00
2019-01-11T13:58:52.839Z,100.00
2019-01-11T14:04:11.387Z,100.00
2019-01-11T14:09:30.002Z,100.00
2019-01-11T14:14:48.553Z,100.00
2019-01-11T14:20:47.142Z,100.00
2019-01-11T14:26:05.761Z,100.00
2019-01-11T14:31:24.230Z,100.00
2019-01-11T14:37:02.125Z,100.00
2019-01-11T14:42:20.678Z,100.00
2019-01-11T14:47:39.272Z,100.00
2019-01-11T14:53:11.472Z,100.00
2019-01-11T15:04:41.082Z,100.00
2019-01-11T15:26:56.197Z,99.59
2019-01-11T15:38:30.691Z,100.00
2019-01-11T15:49:17.768Z,100.00
2019-01-11T16:00:44.678Z,100.00
2019-01-11T16:12:14.351Z,100.00
2019-01-11T16:18:12.730Z,100.00
2019-01-11T16:23:31.196Z,100.00
2019-01-11T16:28:49.683Z,100.00
2019-01-11T16:34:27.562Z,100.00
2019-01-11T16:39:46.033Z,100.00
2019-01-11T16:45:44.431Z,100.00
2019-01-11T16:51:03.226Z,100.00
2019-01-11T16:56:21.764Z,100.00
2019-01-11T17:01:40.242Z,99.98
2019-01-11T17:06:58.937Z,100.00
2019-01-11T17:12:17.390Z,100.00
2019-01-11T17:17:35.968Z,100.00
2019-01-11T17:22:54.461Z,99.62
2019-01-11T17:28:13.102Z,99.62
2019-01-11T17:33:31.773Z,99.56
2019-01-11T17:39:09.645Z,99.12
2019-01-11T17:44:28.110Z,99.12
2019-01-11T17:49:46.578Z,99.02
2019-01-11T17:55:45.701Z,98.95
2019-01-11T18:01:23.600Z,98.94
2019-01-11T18:06:42.289Z,98.96
2019-01-11T18:17:31.292Z,99.11
2019-01-11T18:22:50.007Z,99.53
2019-01-11T18:28:08.484Z,99.85
2019-01-11T18:33:27.105Z,99.81
2019-01-11T18:38:45.558Z,99.70
2019-01-11T18:49:56.888Z,98.86
2019-01-11T18:55:16.116Z,98.72
2019-01-11T19:00:34.750Z,98.86
2019-01-11T19:05:53.374Z,98.97
2019-01-11T19:11:12.162Z,99.21
2019-01-11T19:16:31.064Z,99.15
2019-01-11T19:21:49.699Z,99.17
2019-01-11T19:27:15.743Z,99.29
2019-01-11T19:32:34.802Z,99.43
2019-01-11T19:37:53.557Z,99.66
2019-01-11T19:43:12.532Z,99.78
2019-01-11T19:48:31.200Z,99.73
2019-01-11T19:53:50.042Z,99.90
2019-01-11T19:59:08.757Z,100.00
2019-01-11T20:04:27.460Z,100.00
2019-01-11T20:09:46.137Z,100.00
2019-01-11T20:15:07.073Z,100.00
2019-01-11T20:20:25.681Z,100.00
2019-01-11T20:25:44.377Z,100.00
2019-01-11T20:31:02.989Z,100.00
2019-01-11T20:36:21.889Z,100.00
2019-01-11T20:41:40.864Z,100.00
2019-01-11T20:46:59.467Z,99.70
2019-01-11T20:52:18.166Z,99.18
2019-01-11T20:57:36.890Z,98.58
2019-01-11T21:02:55.722Z,98.53
2019-01-11T21:08:14.534Z,98.52
2019-01-11T21:13:33.092Z,98.80
2019-01-11T21:18:53.269Z,98.34
2019-01-11T21:24:12.076Z,98.21
2019-01-11T21:29:30.799Z,98.03
2019-01-11T21:34:49.444Z,98.43
2019-01-11T21:40:11.279Z,98.77
2019-01-11T21:45:29.976Z,98.82
2019-01-11T21:50:48.659Z,99.11
2019-01-11T21:56:07.377Z,99.43
2019-01-11T22:01:26.159Z,99.81
2019-01-11T22:06:45.178Z,99.97
2019-01-11T22:12:05.334Z,99.71
2019-01-11T22:17:24.305Z,99.55
2019-01-11T22:22:42.946Z,99.66
2019-01-11T22:28:01.932Z,99.73
2019-01-11T22:33:20.680Z,100.00
2019-01-11T22:38:39.301Z,99.98
2019-01-11T22:43:57.984Z,99.31
2019-01-11T22:49:16.435Z,99.06
2019-01-11T22:54:35.077Z,99.18
2019-01-11T22:59:54.122Z,99.14
2019-01-11T23:05:13.660Z,99.14
2019-01-11T23:10:35.233Z,99.73
2019-01-11T23:15:54.522Z,99.83
2019-01-11T23:21:13.087Z,99.15
2019-01-11T23:26:31.668Z,99.16
2019-01-11T23:31:50.239Z,99.15
2019-01-11T23:37:08.878Z,99.52
2019-01-11T23:42:27.510Z,99.83
2019-01-11T23:47:46.139Z,99.91
2019-01-11T23:53:05.656Z,100.00
2019-01-11T23:58:24.305Z,100.00
